sensor_id;sensor_type;location;lat;lon;timestamp;P1;durP1;ratioP1;P2;durP2;ratioP2
6374;SDS011;35400;45.472;-122.822;2023-02-15T00:02:20;1.93;;;1.00;;
6374;SDS011;35400;45.472;-122.822;2023-02-15T00:04:47;2.53;;;1.17;;
6374;SDS011;35400;45.472;-122.822;2023-02-15T00:07:15;3.27;;;1.20;;
6374;SDS011;35400;45.472;-122.822;2023-02-15T00:09:44;4.40;;;1.07;;
6374;SDS011;35400;45.472;-122.822;2023-02-15T00:12:12;3.07;;;1.10;;
6374;SDS011;35400;45.472;-122.822;2023-02-15T00:14:39;2.60;;;1.10;;
6374;SDS011;35400;45.472;-122.822;2023-02-15T00:17:07;1.73;;;1.00;;
6374;SDS011;35400;45.472;-122.822;2023-02-15T00:19:34;1.60;;;0.97;;
6374;SDS011;35400;45.472;-122.822;2023-02-15T00:22:01;2.23;;;1.13;;
6374;SDS011;35400;45.472;-122.822;2023-02-15T00:24:28;6.50;;;0.93;;
6374;SDS011;35400;45.472;-122.822;2023-02-15T00:26:55;3.40;;;1.00;;
6374;SDS011;35400;45.472;-122.822;2023-02-15T00:29:22;2.67;;;1.40;;
6374;SDS011;35400;45.472;-122.822;2023-02-15T00:31:49;2.53;;;1.07;;
6374;SDS011;35400;45.472;-122.822;2023-02-15T00:34:24;1.57;;;1.10;;
6374;SDS011;35400;45.472;-122.822;2023-02-15T00:36:52;3.90;;;1.50;;
6374;SDS011;35400;45.472;-122.822;2023-02-15T00:39:19;2.67;;;1.43;;
6374;SDS011;35400;45.472;-122.822;2023-02-15T00:41:46;2.60;;;1.10;;
6374;SDS011;35400;45.472;-122.822;2023-02-15T00:44:14;0.97;;;0.83;;
6374;SDS011;35400;45.472;-122.822;2023-02-15T00:46:41;1.87;;;1.43;;
6374;SDS011;35400;45.472;-122.822;2023-02-15T00:49:08;2.40;;;1.00;;
6374;SDS011;35400;45.472;-122.822;2023-02-15T00:51:37;1.53;;;1.27;;
6374;SDS011;35400;45.472;-122.822;2023-02-15T00:54:05;3.03;;;1.20;;
6374;SDS011;35400;45.472;-122.822;2023-02-15T00:56:32;1.80;;;1.03;;
6374;SDS011;35400;45.472;-122.822;2023-02-15T00:58:59;2.77;;;1.30;;
6374;SDS011;35400;45.472;-122.822;2023-02-15T01:01:26;4.03;;;1.00;;
6374;SDS011;35400;45.472;-122.822;2023-02-15T01:03:53;2.50;;;1.10;;
6374;SDS011;35400;45.472;-122.822;2023-02-15T01:06:20;2.33;;;1.17;;
6374;SDS011;35400;45.472;-122.822;2023-02-15T01:08:47;2.30;;;1.00;;
6374;SDS011;35400;45.472;-122.822;2023-02-15T01:11:19;3.17;;;1.30;;
6374;SDS011;35400;45.472;-122.822;2023-02-15T01:13:51;7.00;;;1.80;;
6374;SDS011;35400;45.472;-122.822;2023-02-15T01:16:24;3.47;;;2.10;;
6374;SDS011;35400;45.472;-122.822;2023-02-15T01:18:52;2.43;;;1.37;;
6374;SDS011;35400;45.472;-122.822;2023-02-15T01:21:23;5.73;;;3.40;;
6374;SDS011;35400;45.472;-122.822;2023-02-15T01:23:51;16.80;;;9.50;;
6374;SDS011;35400;45.472;-122.822;2023-02-15T01:26:18;7.70;;;5.00;;
6374;SDS011;35400;45.472;-122.822;2023-02-15T01:28:45;6.67;;;3.07;;
6374;SDS011;35400;45.472;-122.822;2023-02-15T01:31:13;5.53;;;3.20;;
6374;SDS011;35400;45.472;-122.822;2023-02-15T01:33:44;5.40;;;3.37;;
6374;SDS011;35400;45.472;-122.822;2023-02-15T01:36:12;10.97;;;4.53;;
6374;SDS011;35400;45.472;-122.822;2023-02-15T01:38:39;11.63;;;5.80;;
6374;SDS011;35400;45.472;-122.822;2023-02-15T01:41:07;4.40;;;2.77;;
6374;SDS011;35400;45.472;-122.822;2023-02-15T01:43:50;9.50;;;4.50;;
6374;SDS011;35400;45.472;-122.822;2023-02-15T01:46:30;6.07;;;2.13;;
6374;SDS011;35400;45.472;-122.822;2023-02-15T01:49:04;3.80;;;2.43;;
6374;SDS011;35400;45.472;-122.822;2023-02-15T01:51:36;3.60;;;2.40;;
6374;SDS011;35400;45.472;-122.822;2023-02-15T01:54:11;3.37;;;1.83;;
6374;SDS011;35400;45.472;-122.822;2023-02-15T01:56:40;3.00;;;1.77;;
6374;SDS011;35400;45.472;-122.822;2023-02-15T01:59:11;6.27;;;3.47;;
6374;SDS011;35400;45.472;-122.822;2023-02-15T02:01:42;5.20;;;2.50;;
6374;SDS011;35400;45.472;-122.822;2023-02-15T02:06:51;6.40;;;2.07;;
6374;SDS011;35400;45.472;-122.822;2023-02-15T02:09:18;8.10;;;3.77;;
6374;SDS011;35400;45.472;-122.822;2023-02-15T02:11:46;11.17;;;6.03;;
6374;SDS011;35400;45.472;-122.822;2023-02-15T02:14:14;12.77;;;6.73;;
6374;SDS011;35400;45.472;-122.822;2023-02-15T02:16:55;10.13;;;5.17;;
6374;SDS011;35400;45.472;-122.822;2023-02-15T02:20:05;9.73;;;4.87;;
6374;SDS011;35400;45.472;-122.822;2023-02-15T02:26:04;7.73;;;4.03;;
6374;SDS011;35400;45.472;-122.822;2023-02-15T02:34:55;11.00;;;5.60;;
6374;SDS011;35400;45.472;-122.822;2023-02-15T02:37:53;7.97;;;5.20;;
6374;SDS011;35400;45.472;-122.822;2023-02-15T02:40:52;8.63;;;5.80;;
6374;SDS011;35400;45.472;-122.822;2023-02-15T02:43:44;5.83;;;3.37;;
6374;SDS011;35400;45.472;-122.822;2023-02-15T02:49:15;4.53;;;2.20;;
6374;SDS011;35400;45.472;-122.822;2023-02-15T02:51:42;3.60;;;2.10;;
6374;SDS011;35400;45.472;-122.822;2023-02-15T02:54:09;2.43;;;1.83;;
6374;SDS011;35400;45.472;-122.822;2023-02-15T02:56:43;4.83;;;2.10;;
6374;SDS011;35400;45.472;-122.822;2023-02-15T02:59:18;3.77;;;2.20;;
6374;SDS011;35400;45.472;-122.822;2023-02-15T03:02:03;4.23;;;1.83;;
6374;SDS011;35400;45.472;-122.822;2023-02-15T03:04:39;5.00;;;2.20;;
6374;SDS011;35400;45.472;-122.822;2023-02-15T03:07:12;4.90;;;2.80;;
6374;SDS011;35400;45.472;-122.822;2023-02-15T03:09:49;5.17;;;2.50;;
6374;SDS011;35400;45.472;-122.822;2023-02-15T03:12:26;14.73;;;8.53;;
6374;SDS011;35400;45.472;-122.822;2023-02-15T03:15:07;14.97;;;9.63;;
6374;SDS011;35400;45.472;-122.822;2023-02-15T03:17:40;14.87;;;7.90;;
6374;SDS011;35400;45.472;-122.822;2023-02-15T03:20:28;15.80;;;11.67;;
6374;SDS011;35400;45.472;-122.822;2023-02-15T03:23:01;16.30;;;11.53;;
6374;SDS011;35400;45.472;-122.822;2023-02-15T03:25:33;8.27;;;5.30;;
6374;SDS011;35400;45.472;-122.822;2023-02-15T03:28:06;4.63;;;3.03;;
6374;SDS011;35400;45.472;-122.822;2023-02-15T03:30:37;7.17;;;4.77;;
6374;SDS011;35400;45.472;-122.822;2023-02-15T03:33:06;7.63;;;3.30;;
6374;SDS011;35400;45.472;-122.822;2023-02-15T03:36:08;10.40;;;4.97;;
6374;SDS011;35400;45.472;-122.822;2023-02-15T03:41:26;4.20;;;2.50;;
6374;SDS011;35400;45.472;-122.822;2023-02-15T03:44:02;3.90;;;1.70;;
6374;SDS011;35400;45.472;-122.822;2023-02-15T03:47:00;4.10;;;1.63;;
6374;SDS011;35400;45.472;-122.822;2023-02-15T03:52:01;4.27;;;2.13;;
6374;SDS011;35400;45.472;-122.822;2023-02-15T03:54:30;6.13;;;3.07;;
6374;SDS011;35400;45.472;-122.822;2023-02-15T03:57:18;7.37;;;4.17;;
6374;SDS011;35400;45.472;-122.822;2023-02-15T04:00:16;5.07;;;3.10;;
6374;SDS011;35400;45.472;-122.822;2023-02-15T04:03:18;6.03;;;3.70;;
6374;SDS011;35400;45.472;-122.822;2023-02-15T04:06:04;4.00;;;2.90;;
6374;SDS011;35400;45.472;-122.822;2023-02-15T04:08:31;5.53;;;4.00;;
6374;SDS011;35400;45.472;-122.822;2023-02-15T04:11:16;6.13;;;5.50;;
6374;SDS011;35400;45.472;-122.822;2023-02-15T04:13:43;8.40;;;5.50;;
6374;SDS011;35400;45.472;-122.822;2023-02-15T04:16:09;6.33;;;4.67;;
6374;SDS011;35400;45.472;-122.822;2023-02-15T04:18:42;6.47;;;3.70;;
6374;SDS011;35400;45.472;-122.822;2023-02-15T04:21:28;9.23;;;8.10;;
6374;SDS011;35400;45.472;-122.822;2023-02-15T04:24:14;5.70;;;4.37;;
6374;SDS011;35400;45.472;-122.822;2023-02-15T04:27:00;5.03;;;3.60;;
6374;SDS011;35400;45.472;-122.822;2023-02-15T04:29:28;5.07;;;2.73;;
6374;SDS011;35400;45.472;-122.822;2023-02-15T04:31:56;3.77;;;2.30;;
6374;SDS011;35400;45.472;-122.822;2023-02-15T04:34:25;2.80;;;1.60;;
6374;SDS011;35400;45.472;-122.822;2023-02-15T04:36:52;6.37;;;2.10;;
6374;SDS011;35400;45.472;-122.822;2023-02-15T04:39:19;5.00;;;1.50;;
6374;SDS011;35400;45.472;-122.822;2023-02-15T04:41:46;1.57;;;1.07;;
6374;SDS011;35400;45.472;-122.822;2023-02-15T04:44:13;2.60;;;1.20;;
6374;SDS011;35400;45.472;-122.822;2023-02-15T04:46:40;5.03;;;1.80;;
6374;SDS011;35400;45.472;-122.822;2023-02-15T04:49:07;3.13;;;1.57;;
6374;SDS011;35400;45.472;-122.822;2023-02-15T04:51:35;1.80;;;1.53;;
6374;SDS011;35400;45.472;-122.822;2023-02-15T04:54:01;2.80;;;1.93;;
6374;SDS011;35400;45.472;-122.822;2023-02-15T04:56:28;3.73;;;1.97;;
6374;SDS011;35400;45.472;-122.822;2023-02-15T04:58:56;3.43;;;2.77;;
6374;SDS011;35400;45.472;-122.822;2023-02-15T05:01:23;4.00;;;3.20;;
6374;SDS011;35400;45.472;-122.822;2023-02-15T05:03:50;5.77;;;2.90;;
6374;SDS011;35400;45.472;-122.822;2023-02-15T05:06:17;2.43;;;2.00;;
6374;SDS011;35400;45.472;-122.822;2023-02-15T05:08:44;4.93;;;2.10;;
6374;SDS011;35400;45.472;-122.822;2023-02-15T05:11:11;5.23;;;1.80;;
6374;SDS011;35400;45.472;-122.822;2023-02-15T05:13:37;2.07;;;1.70;;
6374;SDS011;35400;45.472;-122.822;2023-02-15T05:16:04;5.07;;;1.50;;
6374;SDS011;35400;45.472;-122.822;2023-02-15T05:18:31;3.47;;;1.60;;
6374;SDS011;35400;45.472;-122.822;2023-02-15T05:20:58;3.33;;;1.93;;
6374;SDS011;35400;45.472;-122.822;2023-02-15T05:23:25;3.50;;;1.83;;
6374;SDS011;35400;45.472;-122.822;2023-02-15T05:25:52;3.87;;;1.73;;
6374;SDS011;35400;45.472;-122.822;2023-02-15T05:28:37;2.37;;;1.77;;
6374;SDS011;35400;45.472;-122.822;2023-02-15T05:33:31;2.17;;;1.73;;
6374;SDS011;35400;45.472;-122.822;2023-02-15T05:35:59;1.77;;;1.33;;
6374;SDS011;35400;45.472;-122.822;2023-02-15T05:38:26;2.67;;;1.63;;
6374;SDS011;35400;45.472;-122.822;2023-02-15T05:40:53;3.10;;;1.80;;
6374;SDS011;35400;45.472;-122.822;2023-02-15T05:43:20;2.43;;;1.50;;
6374;SDS011;35400;45.472;-122.822;2023-02-15T05:45:48;2.03;;;1.57;;
6374;SDS011;35400;45.472;-122.822;2023-02-15T05:48:16;2.77;;;1.80;;
6374;SDS011;35400;45.472;-122.822;2023-02-15T05:50:44;11.87;;;5.93;;
6374;SDS011;35400;45.472;-122.822;2023-02-15T05:53:11;6.20;;;3.27;;
6374;SDS011;35400;45.472;-122.822;2023-02-15T05:55:38;6.17;;;2.70;;
6374;SDS011;35400;45.472;-122.822;2023-02-15T05:58:06;3.83;;;1.90;;
6374;SDS011;35400;45.472;-122.822;2023-02-15T06:00:33;2.70;;;1.70;;
6374;SDS011;35400;45.472;-122.822;2023-02-15T06:03:00;4.17;;;2.30;;
6374;SDS011;35400;45.472;-122.822;2023-02-15T06:05:27;4.37;;;1.60;;
6374;SDS011;35400;45.472;-122.822;2023-02-15T06:07:54;5.17;;;2.70;;
6374;SDS011;35400;45.472;-122.822;2023-02-15T06:10:21;4.53;;;2.80;;
6374;SDS011;35400;45.472;-122.822;2023-02-15T06:12:48;9.50;;;3.03;;
6374;SDS011;35400;45.472;-122.822;2023-02-15T06:15:15;13.00;;;9.10;;
6374;SDS011;35400;45.472;-122.822;2023-02-15T06:17:41;8.67;;;3.70;;
6374;SDS011;35400;45.472;-122.822;2023-02-15T06:20:09;10.23;;;5.87;;
6374;SDS011;35400;45.472;-122.822;2023-02-15T06:22:36;10.93;;;7.60;;
6374;SDS011;35400;45.472;-122.822;2023-02-15T06:25:03;10.53;;;8.07;;
6374;SDS011;35400;45.472;-122.822;2023-02-15T06:27:30;12.70;;;9.60;;
6374;SDS011;35400;45.472;-122.822;2023-02-15T06:29:57;10.47;;;8.17;;
6374;SDS011;35400;45.472;-122.822;2023-02-15T06:32:24;9.70;;;8.53;;
6374;SDS011;35400;45.472;-122.822;2023-02-15T06:34:50;16.10;;;10.60;;
6374;SDS011;35400;45.472;-122.822;2023-02-15T06:37:17;10.97;;;8.90;;
6374;SDS011;35400;45.472;-122.822;2023-02-15T06:39:44;11.07;;;8.17;;
6374;SDS011;35400;45.472;-122.822;2023-02-15T06:42:11;10.30;;;7.70;;
6374;SDS011;35400;45.472;-122.822;2023-02-15T06:44:38;8.83;;;6.70;;
6374;SDS011;35400;45.472;-122.822;2023-02-15T06:47:05;10.10;;;6.20;;
6374;SDS011;35400;45.472;-122.822;2023-02-15T06:49:31;6.90;;;5.13;;
6374;SDS011;35400;45.472;-122.822;2023-02-15T06:51:58;4.57;;;3.70;;
6374;SDS011;35400;45.472;-122.822;2023-02-15T06:54:25;5.37;;;3.37;;
6374;SDS011;35400;45.472;-122.822;2023-02-15T06:56:52;4.87;;;4.10;;
6374;SDS011;35400;45.472;-122.822;2023-02-15T06:59:18;4.47;;;2.73;;
6374;SDS011;35400;45.472;-122.822;2023-02-15T07:01:46;3.80;;;3.20;;
6374;SDS011;35400;45.472;-122.822;2023-02-15T07:04:12;4.93;;;3.17;;
6374;SDS011;35400;45.472;-122.822;2023-02-15T07:06:39;6.37;;;3.47;;
6374;SDS011;35400;45.472;-122.822;2023-02-15T07:09:06;7.13;;;3.93;;
6374;SDS011;35400;45.472;-122.822;2023-02-15T07:11:33;3.87;;;2.70;;
6374;SDS011;35400;45.472;-122.822;2023-02-15T07:14:18;4.37;;;3.20;;
6374;SDS011;35400;45.472;-122.822;2023-02-15T07:16:45;4.97;;;3.00;;
6374;SDS011;35400;45.472;-122.822;2023-02-15T07:19:12;4.60;;;3.30;;
6374;SDS011;35400;45.472;-122.822;2023-02-15T07:21:39;5.40;;;3.90;;
6374;SDS011;35400;45.472;-122.822;2023-02-15T07:24:05;7.83;;;4.73;;
6374;SDS011;35400;45.472;-122.822;2023-02-15T07:26:33;10.13;;;5.63;;
6374;SDS011;35400;45.472;-122.822;2023-02-15T07:29:00;7.23;;;5.47;;
6374;SDS011;35400;45.472;-122.822;2023-02-15T07:31:27;8.40;;;5.23;;
6374;SDS011;35400;45.472;-122.822;2023-02-15T07:33:54;7.67;;;5.63;;
6374;SDS011;35400;45.472;-122.822;2023-02-15T07:36:20;5.33;;;4.83;;
6374;SDS011;35400;45.472;-122.822;2023-02-15T07:38:47;4.80;;;3.53;;
6374;SDS011;35400;45.472;-122.822;2023-02-15T07:41:14;5.33;;;3.73;;
6374;SDS011;35400;45.472;-122.822;2023-02-15T07:43:42;6.53;;;3.90;;
6374;SDS011;35400;45.472;-122.822;2023-02-15T07:46:12;5.10;;;3.50;;
6374;SDS011;35400;45.472;-122.822;2023-02-15T07:48:41;5.63;;;3.93;;
6374;SDS011;35400;45.472;-122.822;2023-02-15T07:51:08;9.40;;;4.67;;
6374;SDS011;35400;45.472;-122.822;2023-02-15T07:53:37;5.70;;;3.60;;
6374;SDS011;35400;45.472;-122.822;2023-02-15T07:56:05;5.43;;;3.23;;
6374;SDS011;35400;45.472;-122.822;2023-02-15T07:58:35;3.67;;;2.70;;
6374;SDS011;35400;45.472;-122.822;2023-02-15T08:01:22;5.17;;;2.40;;
6374;SDS011;35400;45.472;-122.822;2023-02-15T08:03:53;4.27;;;3.00;;
6374;SDS011;35400;45.472;-122.822;2023-02-15T08:06:21;3.33;;;2.50;;
6374;SDS011;35400;45.472;-122.822;2023-02-15T08:08:49;4.47;;;3.10;;
6374;SDS011;35400;45.472;-122.822;2023-02-15T08:11:23;4.90;;;3.60;;
6374;SDS011;35400;45.472;-122.822;2023-02-15T08:13:58;3.80;;;2.80;;
6374;SDS011;35400;45.472;-122.822;2023-02-15T08:16:40;6.50;;;2.37;;
6374;SDS011;35400;45.472;-122.822;2023-02-15T08:19:16;3.93;;;3.10;;
6374;SDS011;35400;45.472;-122.822;2023-02-15T08:21:51;4.57;;;3.23;;
6374;SDS011;35400;45.472;-122.822;2023-02-15T08:24:25;4.40;;;2.60;;
6374;SDS011;35400;45.472;-122.822;2023-02-15T08:26:53;5.17;;;2.70;;
6374;SDS011;35400;45.472;-122.822;2023-02-15T08:29:22;3.60;;;2.97;;
6374;SDS011;35400;45.472;-122.822;2023-02-15T08:31:54;4.23;;;2.83;;
6374;SDS011;35400;45.472;-122.822;2023-02-15T08:34:28;4.83;;;3.37;;
6374;SDS011;35400;45.472;-122.822;2023-02-15T08:36:56;4.50;;;3.00;;
6374;SDS011;35400;45.472;-122.822;2023-02-15T08:39:23;4.30;;;2.47;;
6374;SDS011;35400;45.472;-122.822;2023-02-15T08:41:50;4.47;;;2.53;;
6374;SDS011;35400;45.472;-122.822;2023-02-15T08:44:18;4.77;;;2.90;;
6374;SDS011;35400;45.472;-122.822;2023-02-15T08:46:46;4.57;;;3.20;;
6374;SDS011;35400;45.472;-122.822;2023-02-15T08:49:18;7.20;;;3.40;;
6374;SDS011;35400;45.472;-122.822;2023-02-15T08:51:46;5.23;;;2.60;;
6374;SDS011;35400;45.472;-122.822;2023-02-15T08:54:15;5.70;;;2.83;;
6374;SDS011;35400;45.472;-122.822;2023-02-15T08:56:47;7.03;;;2.90;;
6374;SDS011;35400;45.472;-122.822;2023-02-15T08:59:17;6.13;;;2.90;;
6374;SDS011;35400;45.472;-122.822;2023-02-15T09:01:49;4.87;;;2.53;;
6374;SDS011;35400;45.472;-122.822;2023-02-15T09:04:17;5.37;;;2.57;;
6374;SDS011;35400;45.472;-122.822;2023-02-15T09:06:45;3.27;;;2.50;;
6374;SDS011;35400;45.472;-122.822;2023-02-15T09:09:13;7.23;;;3.00;;
6374;SDS011;35400;45.472;-122.822;2023-02-15T09:11:42;3.47;;;2.80;;
6374;SDS011;35400;45.472;-122.822;2023-02-15T09:14:14;10.83;;;6.47;;
6374;SDS011;35400;45.472;-122.822;2023-02-15T09:16:46;7.77;;;4.30;;
6374;SDS011;35400;45.472;-122.822;2023-02-15T09:19:15;6.23;;;3.50;;
6374;SDS011;35400;45.472;-122.822;2023-02-15T09:21:43;6.33;;;4.00;;
6374;SDS011;35400;45.472;-122.822;2023-02-15T09:24:11;8.03;;;3.97;;
6374;SDS011;35400;45.472;-122.822;2023-02-15T09:26:40;11.47;;;6.50;;
6374;SDS011;35400;45.472;-122.822;2023-02-15T09:29:09;8.30;;;4.40;;
6374;SDS011;35400;45.472;-122.822;2023-02-15T09:31:41;8.30;;;5.37;;
6374;SDS011;35400;45.472;-122.822;2023-02-15T09:34:11;6.00;;;3.50;;
6374;SDS011;35400;45.472;-122.822;2023-02-15T09:36:39;5.27;;;3.27;;
6374;SDS011;35400;45.472;-122.822;2023-02-15T09:39:08;3.90;;;3.03;;
6374;SDS011;35400;45.472;-122.822;2023-02-15T09:56:50;9.13;;;4.43;;
6374;SDS011;35400;45.472;-122.822;2023-02-15T10:07:30;8.27;;;5.10;;
6374;SDS011;35400;45.472;-122.822;2023-02-15T10:13:30;6.07;;;4.03;;
6374;SDS011;35400;45.472;-122.822;2023-02-15T10:19:21;6.00;;;4.73;;
6374;SDS011;35400;45.472;-122.822;2023-02-15T10:22:17;5.03;;;4.30;;
6374;SDS011;35400;45.472;-122.822;2023-02-15T10:28:18;6.07;;;3.27;;
6374;SDS011;35400;45.472;-122.822;2023-02-15T10:30:52;5.20;;;2.93;;
6374;SDS011;35400;45.472;-122.822;2023-02-15T10:33:40;4.77;;;3.60;;
6374;SDS011;35400;45.472;-122.822;2023-02-15T10:36:11;6.47;;;3.50;;
6374;SDS011;35400;45.472;-122.822;2023-02-15T10:38:55;4.97;;;3.10;;
6374;SDS011;35400;45.472;-122.822;2023-02-15T10:41:53;4.73;;;3.10;;
6374;SDS011;35400;45.472;-122.822;2023-02-15T10:50:10;5.53;;;3.10;;
6374;SDS011;35400;45.472;-122.822;2023-02-15T10:56:17;4.17;;;2.73;;
6374;SDS011;35400;45.472;-122.822;2023-02-15T10:59:07;5.30;;;2.70;;
6374;SDS011;35400;45.472;-122.822;2023-02-15T11:02:02;4.07;;;2.27;;
6374;SDS011;35400;45.472;-122.822;2023-02-15T11:07:46;6.63;;;2.70;;
6374;SDS011;35400;45.472;-122.822;2023-02-15T11:13:05;3.83;;;2.27;;
6374;SDS011;35400;45.472;-122.822;2023-02-15T11:21:01;3.43;;;2.70;;
6374;SDS011;35400;45.472;-122.822;2023-02-15T11:23:29;3.00;;;2.43;;
6374;SDS011;35400;45.472;-122.822;2023-02-15T11:26:02;4.73;;;2.90;;
6374;SDS011;35400;45.472;-122.822;2023-02-15T11:28:37;4.07;;;3.13;;
6374;SDS011;35400;45.472;-122.822;2023-02-15T11:31:18;3.17;;;2.60;;
6374;SDS011;35400;45.472;-122.822;2023-02-15T11:34:00;3.87;;;2.53;;
6374;SDS011;35400;45.472;-122.822;2023-02-15T11:36:40;2.73;;;2.53;;
6374;SDS011;35400;45.472;-122.822;2023-02-15T11:39:09;6.60;;;3.03;;
6374;SDS011;35400;45.472;-122.822;2023-02-15T11:42:01;3.73;;;2.60;;
6374;SDS011;35400;45.472;-122.822;2023-02-15T11:44:34;2.93;;;2.50;;
6374;SDS011;35400;45.472;-122.822;2023-02-15T11:47:10;4.37;;;2.60;;
6374;SDS011;35400;45.472;-122.822;2023-02-15T11:49:38;7.13;;;2.53;;
6374;SDS011;35400;45.472;-122.822;2023-02-15T11:52:07;3.57;;;2.93;;
6374;SDS011;35400;45.472;-122.822;2023-02-15T11:54:43;4.40;;;3.10;;
6374;SDS011;35400;45.472;-122.822;2023-02-15T12:00:18;3.83;;;2.80;;
6374;SDS011;35400;45.472;-122.822;2023-02-15T12:02:49;4.30;;;2.83;;
6374;SDS011;35400;45.472;-122.822;2023-02-15T12:05:21;3.57;;;2.60;;
6374;SDS011;35400;45.472;-122.822;2023-02-15T12:07:54;4.83;;;3.03;;
6374;SDS011;35400;45.472;-122.822;2023-02-15T12:10:32;3.37;;;2.57;;
6374;SDS011;35400;45.472;-122.822;2023-02-15T12:13:11;3.83;;;2.50;;
6374;SDS011;35400;45.472;-122.822;2023-02-15T12:15:47;4.20;;;3.07;;
6374;SDS011;35400;45.472;-122.822;2023-02-15T12:23:47;3.97;;;2.53;;
6374;SDS011;35400;45.472;-122.822;2023-02-15T12:26:34;4.93;;;2.43;;
6374;SDS011;35400;45.472;-122.822;2023-02-15T12:29:02;4.50;;;2.70;;
6374;SDS011;35400;45.472;-122.822;2023-02-15T12:31:45;5.27;;;3.13;;
6374;SDS011;35400;45.472;-122.822;2023-02-15T12:34:21;3.07;;;2.70;;
6374;SDS011;35400;45.472;-122.822;2023-02-15T12:36:55;3.23;;;2.73;;
6374;SDS011;35400;45.472;-122.822;2023-02-15T12:39:34;5.80;;;3.30;;
6374;SDS011;35400;45.472;-122.822;2023-02-15T12:42:03;8.17;;;3.77;;
6374;SDS011;35400;45.472;-122.822;2023-02-15T12:44:40;6.73;;;3.63;;
6374;SDS011;35400;45.472;-122.822;2023-02-15T12:47:19;7.83;;;3.97;;
6374;SDS011;35400;45.472;-122.822;2023-02-15T12:52:34;14.87;;;4.80;;
6374;SDS011;35400;45.472;-122.822;2023-02-15T12:55:11;6.80;;;4.00;;
6374;SDS011;35400;45.472;-122.822;2023-02-15T12:57:44;6.83;;;4.00;;
6374;SDS011;35400;45.472;-122.822;2023-02-15T13:02:47;10.37;;;4.50;;
6374;SDS011;35400;45.472;-122.822;2023-02-15T13:07:53;6.77;;;4.37;;
6374;SDS011;35400;45.472;-122.822;2023-02-15T13:10:23;7.40;;;4.70;;
6374;SDS011;35400;45.472;-122.822;2023-02-15T13:13:09;9.87;;;4.60;;
6374;SDS011;35400;45.472;-122.822;2023-02-15T13:15:44;7.87;;;5.00;;
6374;SDS011;35400;45.472;-122.822;2023-02-15T13:18:17;10.30;;;4.83;;
6374;SDS011;35400;45.472;-122.822;2023-02-15T13:20:54;9.10;;;4.47;;
6374;SDS011;35400;45.472;-122.822;2023-02-15T13:23:26;8.60;;;4.90;;
6374;SDS011;35400;45.472;-122.822;2023-02-15T13:25:55;7.17;;;4.80;;
6374;SDS011;35400;45.472;-122.822;2023-02-15T13:28:33;7.53;;;4.60;;
6374;SDS011;35400;45.472;-122.822;2023-02-15T13:31:12;6.87;;;4.63;;
6374;SDS011;35400;45.472;-122.822;2023-02-15T13:33:45;7.83;;;4.83;;
6374;SDS011;35400;45.472;-122.822;2023-02-15T13:36:19;13.70;;;6.40;;
6374;SDS011;35400;45.472;-122.822;2023-02-15T13:39:09;8.77;;;5.37;;
6374;SDS011;35400;45.472;-122.822;2023-02-15T13:41:58;7.47;;;4.53;;
6374;SDS011;35400;45.472;-122.822;2023-02-15T13:50:31;9.47;;;5.23;;
6374;SDS011;35400;45.472;-122.822;2023-02-15T13:59:01;8.53;;;5.13;;
6374;SDS011;35400;45.472;-122.822;2023-02-15T14:01:45;9.57;;;5.47;;
6374;SDS011;35400;45.472;-122.822;2023-02-15T14:15:25;9.97;;;4.97;;
6374;SDS011;35400;45.472;-122.822;2023-02-15T14:20:47;6.17;;;4.57;;
6374;SDS011;35400;45.472;-122.822;2023-02-15T14:25:56;7.63;;;4.30;;
6374;SDS011;35400;45.472;-122.822;2023-02-15T14:31:09;6.43;;;4.37;;
6374;SDS011;35400;45.472;-122.822;2023-02-15T14:33:52;8.33;;;5.10;;
6374;SDS011;35400;45.472;-122.822;2023-02-15T14:36:24;7.03;;;4.80;;
6374;SDS011;35400;45.472;-122.822;2023-02-15T14:49:44;8.23;;;4.73;;
6374;SDS011;35400;45.472;-122.822;2023-02-15T14:52:11;5.87;;;4.60;;
6374;SDS011;35400;45.472;-122.822;2023-02-15T14:59:40;8.07;;;4.27;;
6374;SDS011;35400;45.472;-122.822;2023-02-15T15:02:26;9.20;;;5.20;;
6374;SDS011;35400;45.472;-122.822;2023-02-15T15:05:07;8.53;;;4.77;;
6374;SDS011;35400;45.472;-122.822;2023-02-15T15:12:57;9.57;;;5.10;;
6374;SDS011;35400;45.472;-122.822;2023-02-15T15:18:09;7.93;;;5.40;;
6374;SDS011;35400;45.472;-122.822;2023-02-15T15:20:56;12.83;;;7.37;;
6374;SDS011;35400;45.472;-122.822;2023-02-15T15:26:26;12.93;;;6.67;;
6374;SDS011;35400;45.472;-122.822;2023-02-15T15:28:56;12.37;;;6.80;;
6374;SDS011;35400;45.472;-122.822;2023-02-15T15:37:46;17.80;;;8.10;;
6374;SDS011;35400;45.472;-122.822;2023-02-15T15:40:51;23.63;;;8.47;;
6374;SDS011;35400;45.472;-122.822;2023-02-15T15:48:53;15.97;;;7.87;;
6374;SDS011;35400;45.472;-122.822;2023-02-15T15:51:22;16.00;;;7.50;;
6374;SDS011;35400;45.472;-122.822;2023-02-15T15:53:55;11.13;;;6.67;;
6374;SDS011;35400;45.472;-122.822;2023-02-15T15:56:26;13.50;;;7.33;;
6374;SDS011;35400;45.472;-122.822;2023-02-15T15:59:01;12.80;;;6.40;;
6374;SDS011;35400;45.472;-122.822;2023-02-15T16:02:05;12.80;;;7.00;;
6374;SDS011;35400;45.472;-122.822;2023-02-15T16:04:32;10.87;;;6.87;;
6374;SDS011;35400;45.472;-122.822;2023-02-15T16:09:59;8.23;;;6.33;;
6374;SDS011;35400;45.472;-122.822;2023-02-15T16:12:27;9.00;;;6.23;;
6374;SDS011;35400;45.472;-122.822;2023-02-15T16:15:17;10.57;;;7.50;;
6374;SDS011;35400;45.472;-122.822;2023-02-15T16:17:50;14.50;;;7.30;;
6374;SDS011;35400;45.472;-122.822;2023-02-15T16:20:33;15.60;;;7.93;;
6374;SDS011;35400;45.472;-122.822;2023-02-15T16:23:24;11.53;;;7.87;;
6374;SDS011;35400;45.472;-122.822;2023-02-15T16:28:34;13.00;;;7.73;;
6374;SDS011;35400;45.472;-122.822;2023-02-15T16:31:06;19.90;;;8.30;;
6374;SDS011;35400;45.472;-122.822;2023-02-15T16:33:38;14.27;;;8.03;;
6374;SDS011;35400;45.472;-122.822;2023-02-15T16:36:11;13.23;;;7.37;;
6374;SDS011;35400;45.472;-122.822;2023-02-15T16:43:41;13.13;;;6.77;;
6374;SDS011;35400;45.472;-122.822;2023-02-15T16:46:13;10.97;;;6.97;;
6374;SDS011;35400;45.472;-122.822;2023-02-15T16:48:51;9.80;;;6.60;;
6374;SDS011;35400;45.472;-122.822;2023-02-15T16:51:21;11.07;;;7.03;;
6374;SDS011;35400;45.472;-122.822;2023-02-15T16:53:53;11.23;;;7.50;;
6374;SDS011;35400;45.472;-122.822;2023-02-15T16:56:25;18.53;;;7.60;;
6374;SDS011;35400;45.472;-122.822;2023-02-15T16:58:56;22.23;;;7.13;;
6374;SDS011;35400;45.472;-122.822;2023-02-15T17:01:25;21.70;;;8.17;;
6374;SDS011;35400;45.472;-122.822;2023-02-15T17:04:15;13.60;;;6.47;;
6374;SDS011;35400;45.472;-122.822;2023-02-15T17:09:59;10.83;;;6.70;;
6374;SDS011;35400;45.472;-122.822;2023-02-15T17:17:52;10.80;;;6.90;;
6374;SDS011;35400;45.472;-122.822;2023-02-15T17:20:21;8.77;;;6.47;;
6374;SDS011;35400;45.472;-122.822;2023-02-15T17:22:51;15.43;;;6.93;;
6374;SDS011;35400;45.472;-122.822;2023-02-15T17:25:19;9.87;;;7.07;;
6374;SDS011;35400;45.472;-122.822;2023-02-15T17:27:51;12.03;;;6.27;;
6374;SDS011;35400;45.472;-122.822;2023-02-15T17:30:28;8.77;;;5.90;;
6374;SDS011;35400;45.472;-122.822;2023-02-15T17:32:58;10.23;;;6.60;;
6374;SDS011;35400;45.472;-122.822;2023-02-15T17:35:28;11.87;;;7.27;;
6374;SDS011;35400;45.472;-122.822;2023-02-15T17:40:41;11.87;;;7.30;;
6374;SDS011;35400;45.472;-122.822;2023-02-15T17:43:07;11.40;;;8.07;;
6374;SDS011;35400;45.472;-122.822;2023-02-15T17:45:35;11.13;;;7.07;;
6374;SDS011;35400;45.472;-122.822;2023-02-15T17:48:09;10.90;;;8.03;;
6374;SDS011;35400;45.472;-122.822;2023-02-15T17:50:50;9.83;;;6.97;;
6374;SDS011;35400;45.472;-122.822;2023-02-15T17:53:17;9.20;;;6.63;;
6374;SDS011;35400;45.472;-122.822;2023-02-15T17:55:44;10.80;;;6.93;;